Station info - map view · info · telemetry · weather · raw · status · beacons · messages · bulletins · browse · moving · my account
Callsign, ship name or locator: Clear       
It is possible to search using wildcards (*?) after a prefix. Example: OH*
APRS station IW2GOB-9 - show graphs
Map loading...
Comment: Op. Maurizio - RCD710+IC2820+AVM6
Mic-E message: En route
Location: 45°18.14' N 9°30.97' E - locator JN45SH12WN - show map - static map
1.0 miles Southeast bearing 140° from Lodi, Provincia di Lodi, Lombardy, Italy [?]
1.8 miles Northeast bearing 51° from Cornegliano Laudense, Provincia di Lodi, Lombardy, Italy
19.4 miles Southeast bearing 125° from Milan, Province of Milan, Lombardy, Italy
68.1 miles Northeast bearing 25° from Genova, Province of Genoa, Liguria, Italy
Last position: 2020-09-12 06:47:39 EDT (15d 22h58m ago)
2020-09-12 12:47:39 CEST local time at Lodi, Italy [?]
Altitude: 226 ft
Course: 246°
Speed: 9 MPH
Device: Kenwood: TM-D710 (rig)
Last path: IW2GOB-9>TU1XQ4 via WIDE1-1,WIDE2-2,qAR,IR2S (good)
Positions stored: 165593
Other SSIDs: IW2GOB IW2GOB-12 IW2GOB-2 IW2GOB-3 IW2GOB-7 IW2GOB-8 IW2GOB-B IW2GOB-DP IW2GOB-H0 IW2GOB-N IW2GOB-OP IW2GOB-OS
Stations near current position of IW2GOB-9 - show more
callsign distance last heard - EDT      callsign distance last heard - EDT
IW2GOB-724.3 yards 217°2020-09-11 04:48:09 PS-IW2GOB57.3 yards 270°2020-09-28 05:05:13
IW2GOB74.4 yards 255°2020-09-13 15:21:58 IW2GOB-887.7 yards 257°2020-09-03 05:54:59
IW2GOB-30.3 miles 133°2020-09-28 05:41:39 IW2GOB-20.3 miles 133°2020-09-28 05:29:39
IW2GOB-120.3 miles 133°2020-09-28 05:32:09 IZ2DDY0.7 miles 317°2020-09-26 11:10:18
IZ2DDY B0.7 miles 315°2020-09-28 05:45:50 IZ2DDY-B0.7 miles 315°2020-09-28 05:46:00
IZ2DDY-R00.7 miles 315°2020-09-28 05:03:08 IZ2DDY-R0.7 miles 315°2020-09-28 05:45:41
IK2PYX B0.7 miles 315°2020-09-28 05:32:39 IK2PYX-B0.7 miles 315°2020-09-28 05:32:49
IZ2DDY-80.8 miles 316°2020-09-01 13:02:11 IZ2DDY-100.9 miles 311°2020-09-24 13:08:05
IW2GOB-OS0.9 miles 336°2020-09-28 05:41:17 IW2GOB-OP1.4 miles 60°2020-09-28 05:44:43
IK2HKN-83.2 miles 314°2020-09-08 09:52:22 S03503513.2 miles 350°2020-09-02 09:24:56
Stations which heard IW2GOB-9 directly on radio –
callsign pkts first heard - EDT last heard longest (tx => rx) longest at - EDT
IR5X 39 2020-09-05 08:01:20 2020-09-12 04:41:39 JN44XE > JN53GS 42.6 miles 133° 2020-09-12 04:41:39
IR3BT 39 2020-09-05 06:55:51 2020-09-12 05:56:29 JN54AP > JN56MD 114.9 miles 25° 2020-09-12 05:18:34
IK2XDE-6 9 2020-09-05 06:28:53 2020-09-12 06:14:10 JN44XM > JN45MQ 91.8 miles 333° 2020-09-05 07:33:38
IR2UBX-11 8 2020-09-05 06:30:51 2020-09-12 06:14:57 JN44XM > JN45MQ 93.3 miles 332° 2020-09-05 07:34:48
IR4AN 29 2020-09-05 07:01:51 2020-09-12 05:39:58 JN54BV > JN54FK 37.0 miles 148° 2020-09-05 07:01:51
IR2BZ 54 2020-09-05 06:14:26 2020-09-12 06:47:39 JN44XL > JN45XO 75.5 miles 1° 2020-09-12 05:05:55
IR2Y 2 2020-09-12 05:06:51 2020-09-12 05:16:05 JN44XM > JN55EK 66.6 miles 18° 2020-09-12 05:06:51
IR2S 45 2020-09-12 05:05:25 2020-09-12 06:47:39 JN44XL > JN55DQ 83.4 miles 11° 2020-09-12 05:05:25
IR0UDY-12 5 2020-09-05 08:16:02 2020-09-05 08:33:10 JN54AA > JN40OU 224.2 miles 192° 2020-09-05 08:16:02
IR2BW 3 2020-09-05 06:24:03 2020-09-12 05:57:28 JN45UB > JN55DN 43.9 miles 37° 2020-09-12 05:56:28
IR2DF 8 2020-09-05 06:14:26 2020-09-12 06:47:16 JN54AV > JN55AS 59.5 miles 359° 2020-09-05 07:00:20
IK2ILW 20 2020-09-05 06:30:22 2020-09-12 06:47:00 JN54CS > JN45VV 79.9 miles 347° 2020-09-12 05:28:35
IK2CHZ-12 57 2020-09-05 06:14:27 2020-09-12 06:47:40 JN44XL > JN45UI 61.7 miles 348° 2020-09-12 05:05:55
IW5CBL-15 51 2020-09-05 07:01:52 2020-09-12 05:20:29 JN54CU > JN44WL 32.3 miles 214° 2020-09-05 07:08:10
IR2UFW 1 2020-09-05 06:27:53 2020-09-05 06:27:53 JN45RG > JN45LI 23.7 miles 284° 2020-09-05 06:27:53
IW2EJH-12 2 2020-09-12 05:44:29 2020-09-12 05:49:00 JN44XW > JN55AU 64.7 miles 4° 2020-09-12 05:44:29
IQ4SC 13 2020-09-05 07:02:20 2020-09-12 05:40:28 JN54BV > JN54IO 35.5 miles 124° 2020-09-12 05:40:28
IR2BY 23 2020-09-05 06:14:06 2020-09-12 06:47:16 JN45TD > JN55BQ 44.3 miles 31° 2020-09-12 06:02:28
IQ3VO 45 2020-09-05 06:15:32 2020-09-12 06:47:00 JN44XG > JN55MQ 113.2 miles 28° 2020-09-05 07:54:16
IR1BP 2 2020-09-05 08:05:31 2020-09-12 04:36:40 JN44XC > JN44BJ 91.1 miles 282° 2020-09-05 08:05:31
IZ1REU-11 2 2020-09-05 08:02:30 2020-09-05 08:03:31 JN44XD > JN44MJ 47.6 miles 294° 2020-09-05 08:03:31
IR2UGD 5 2020-09-05 06:26:23 2020-09-12 06:11:54 JN45RH > JN45PJ 11.7 miles 304° 2020-09-05 06:26:23
IR2DQ 19 2020-09-05 06:41:20 2020-09-12 05:58:29 JN45TD > JN55AD 18.0 miles 84° 2020-09-05 06:41:20
IR2AL 17 2020-09-05 06:15:32 2020-09-12 06:18:54 JN44XM > JN45OL 75.6 miles 331° 2020-09-05 07:33:08
IZ2DDY 28 2020-09-12 05:06:27 2020-09-12 06:47:45 JN44XL > JN45SH 60.2 miles 339° 2020-09-12 05:06:27
IQ2DK 3 2020-09-05 06:39:49 2020-09-12 06:02:58 JN45TD > JN44MX 31.4 miles 248° 2020-09-05 06:40:20
IQ2ZY 15 2020-09-05 06:24:03 2020-09-12 06:10:58 JN45UB > JN45RD 15.8 miles 289° 2020-09-05 06:45:53
IR2BP 37 2020-09-05 06:15:32 2020-09-12 05:56:00 JN44XL > JN55DN 74.9 miles 13° 2020-09-05 07:37:00
IR1BK 4 2020-09-05 08:22:09 2020-09-05 08:25:12 JN54AA > JN33VT 113.0 miles 264° 2020-09-05 08:25:12
IR2CZ 1 2020-09-05 06:30:50 2020-09-05 06:30:50 JN45RG > JN45XS 42.6 miles 34° 2020-09-05 06:30:50
IZ1RHY 11 2020-09-12 04:20:33 2020-09-12 04:54:53 JN44WI > JN44WC 16.5 miles 174° 2020-09-12 04:54:53

Only position packets which were originated by the station are shown here. The range statistics show some extra long hops, because some digipeaters do not correctly add themselves to the digipeater path. Please check the raw packets.
About this site
This page shows real-time information collected from the Automatic Position Reporting System Internet network (APRS-IS). APRS is used by amateur (ham) radio operators to transmit real-time position information, weather data, telemetry and messages over the radio. A vehicle equipped with a GPS receiver, a VHF transmitter or HF transceiver and a small computer device called a tracker transmits it's location, speed and course in a small data packet, which is then received by a nearby iGate receiving site which forwards the packet on the Internet. Systems connected to the Internet can send information on the APRS-IS without a radio transmitter, or collect and display information transmitted anywhere in the world.
User guide · FAQ · Blog · Discussion group · Linking to aprs.fi · AIS sites · Service status · Database statistics · Advertising on aprs.fi · Technical details · API · Change log · Planned changes · Credits and thanks · Terms Of Service · iPhone/iPad APRS